sensor_id;sensor_type;location;lat;lon;timestamp;temperature;humidity
18175;DHT22;9212;50.894;16.714;2022-08-19T00:02:12;24.50;99.90
18175;DHT22;9212;50.894;16.714;2022-08-19T00:04:39;24.50;99.90
18175;DHT22;9212;50.894;16.714;2022-08-19T00:07:06;24.30;99.90
18175;DHT22;9212;50.894;16.714;2022-08-19T00:09:34;24.20;99.90
18175;DHT22;9212;50.894;16.714;2022-08-19T00:12:02;24.20;99.90
18175;DHT22;9212;50.894;16.714;2022-08-19T00:14:30;24.30;99.90
18175;DHT22;9212;50.894;16.714;2022-08-19T00:16:59;23.90;99.90
18175;DHT22;9212;50.894;16.714;2022-08-19T00:19:26;24.70;99.90
18175;DHT22;9212;50.894;16.714;2022-08-19T00:21:53;24.40;99.90
18175;DHT22;9212;50.894;16.714;2022-08-19T00:24:22;24.10;99.90
18175;DHT22;9212;50.894;16.714;2022-08-19T00:26:49;24.50;99.90
18175;DHT22;9212;50.894;16.714;2022-08-19T00:29:19;24.30;99.90
18175;DHT22;9212;50.894;16.714;2022-08-19T00:31:47;24.10;99.90
18175;DHT22;9212;50.894;16.714;2022-08-19T00:34:17;23.90;99.90
18175;DHT22;9212;50.894;16.714;2022-08-19T00:36:44;23.40;99.90
18175;DHT22;9212;50.894;16.714;2022-08-19T00:39:12;23.10;99.90
18175;DHT22;9212;50.894;16.714;2022-08-19T00:41:40;22.80;99.90
18175;DHT22;9212;50.894;16.714;2022-08-19T00:44:09;22.70;99.90
18175;DHT22;9212;50.894;16.714;2022-08-19T00:49:10;22.60;99.90
18175;DHT22;9212;50.894;16.714;2022-08-19T00:51:42;22.50;99.90
18175;DHT22;9212;50.894;16.714;2022-08-19T00:54:11;22.50;99.90
18175;DHT22;9212;50.894;16.714;2022-08-19T00:56:38;22.50;99.90
18175;DHT22;9212;50.894;16.714;2022-08-19T00:59:06;22.40;99.90
18175;DHT22;9212;50.894;16.714;2022-08-19T01:01:35;22.40;99.90
18175;DHT22;9212;50.894;16.714;2022-08-19T01:04:02;22.50;99.90
18175;DHT22;9212;50.894;16.714;2022-08-19T01:06:30;22.00;99.90
18175;DHT22;9212;50.894;16.714;2022-08-19T01:09:00;22.30;99.90
18175;DHT22;9212;50.894;16.714;2022-08-19T01:11:27;22.70;99.90
18175;DHT22;9212;50.894;16.714;2022-08-19T01:13:55;22.30;99.90
18175;DHT22;9212;50.894;16.714;2022-08-19T01:16:25;22.40;99.90
18175;DHT22;9212;50.894;16.714;2022-08-19T01:18:53;22.30;99.90
18175;DHT22;9212;50.894;16.714;2022-08-19T01:21:24;22.40;99.90
18175;DHT22;9212;50.894;16.714;2022-08-19T01:23:54;22.70;99.90
18175;DHT22;9212;50.894;16.714;2022-08-19T01:26:24;22.70;99.90
18175;DHT22;9212;50.894;16.714;2022-08-19T01:28:54;22.30;99.90
18175;DHT22;9212;50.894;16.714;2022-08-19T01:31:23;22.70;99.90
18175;DHT22;9212;50.894;16.714;2022-08-19T01:33:52;22.60;99.90
18175;DHT22;9212;50.894;16.714;2022-08-19T01:36:23;22.50;99.90
18175;DHT22;9212;50.894;16.714;2022-08-19T01:38:51;22.70;99.90
18175;DHT22;9212;50.894;16.714;2022-08-19T01:41:19;22.70;99.90
18175;DHT22;9212;50.894;16.714;2022-08-19T01:43:49;22.70;99.90
18175;DHT22;9212;50.894;16.714;2022-08-19T01:46:18;22.80;99.90
18175;DHT22;9212;50.894;16.714;2022-08-19T01:48:46;22.70;99.90
18175;DHT22;9212;50.894;16.714;2022-08-19T01:51:13;22.40;99.90
18175;DHT22;9212;50.894;16.714;2022-08-19T01:53:41;22.90;99.90
18175;DHT22;9212;50.894;16.714;2022-08-19T01:56:09;22.90;99.90
18175;DHT22;9212;50.894;16.714;2022-08-19T01:58:46;23.00;99.90
18175;DHT22;9212;50.894;16.714;2022-08-19T02:01:17;22.70;99.90
18175;DHT22;9212;50.894;16.714;2022-08-19T02:03:44;22.30;99.90
18175;DHT22;9212;50.894;16.714;2022-08-19T02:06:11;22.10;99.90
18175;DHT22;9212;50.894;16.714;2022-08-19T02:08:39;21.90;99.90
18175;DHT22;9212;50.894;16.714;2022-08-19T02:11:07;21.70;99.90
18175;DHT22;9212;50.894;16.714;2022-08-19T02:13:34;21.60;99.90
18175;DHT22;9212;50.894;16.714;2022-08-19T02:16:04;21.70;99.90
18175;DHT22;9212;50.894;16.714;2022-08-19T02:18:31;21.40;99.90
18175;DHT22;9212;50.894;16.714;2022-08-19T02:20:59;21.30;99.90
18175;DHT22;9212;50.894;16.714;2022-08-19T02:23:26;22.00;99.90
18175;DHT22;9212;50.894;16.714;2022-08-19T02:25:53;21.00;99.90
18175;DHT22;9212;50.894;16.714;2022-08-19T02:28:20;21.00;99.90
18175;DHT22;9212;50.894;16.714;2022-08-19T02:30:48;21.00;99.90
18175;DHT22;9212;50.894;16.714;2022-08-19T02:33:16;21.00;99.90
18175;DHT22;9212;50.894;16.714;2022-08-19T02:35:44;20.90;99.90
18175;DHT22;9212;50.894;16.714;2022-08-19T02:38:11;20.90;99.90
18175;DHT22;9212;50.894;16.714;2022-08-19T02:40:56;20.70;99.90
18175;DHT22;9212;50.894;16.714;2022-08-19T02:43:24;20.90;99.90
18175;DHT22;9212;50.894;16.714;2022-08-19T02:45:52;20.40;99.90
18175;DHT22;9212;50.894;16.714;2022-08-19T02:48:22;20.40;99.90
18175;DHT22;9212;50.894;16.714;2022-08-19T02:50:52;20.40;99.90
18175;DHT22;9212;50.894;16.714;2022-08-19T02:53:21;20.30;99.90
18175;DHT22;9212;50.894;16.714;2022-08-19T02:55:51;20.30;99.90
18175;DHT22;9212;50.894;16.714;2022-08-19T02:58:19;20.10;99.90
18175;DHT22;9212;50.894;16.714;2022-08-19T03:00:48;20.00;99.90
18175;DHT22;9212;50.894;16.714;2022-08-19T03:03:16;19.90;99.90
18175;DHT22;9212;50.894;16.714;2022-08-19T03:05:45;19.80;99.90
18175;DHT22;9212;50.894;16.714;2022-08-19T03:08:13;19.60;99.90
18175;DHT22;9212;50.894;16.714;2022-08-19T03:10:41;19.60;99.90
18175;DHT22;9212;50.894;16.714;2022-08-19T03:13:12;19.70;99.90
18175;DHT22;9212;50.894;16.714;2022-08-19T03:15:40;19.60;99.90
18175;DHT22;9212;50.894;16.714;2022-08-19T03:18:07;19.50;99.90
18175;DHT22;9212;50.894;16.714;2022-08-19T03:20:40;19.40;99.90
18175;DHT22;9212;50.894;16.714;2022-08-19T03:23:09;19.30;99.90
18175;DHT22;9212;50.894;16.714;2022-08-19T03:25:39;19.40;99.90
18175;DHT22;9212;50.894;16.714;2022-08-19T03:28:09;19.20;99.90
18175;DHT22;9212;50.894;16.714;2022-08-19T03:30:37;19.20;99.90
18175;DHT22;9212;50.894;16.714;2022-08-19T03:33:07;17.20;99.90
18175;DHT22;9212;50.894;16.714;2022-08-19T03:35:34;19.10;99.90
18175;DHT22;9212;50.894;16.714;2022-08-19T03:38:02;19.00;99.90
18175;DHT22;9212;50.894;16.714;2022-08-19T06:11:56;32.70;99.90
18175;DHT22;9212;50.894;16.714;2022-08-19T06:14:28;33.70;99.90
18175;DHT22;9212;50.894;16.714;2022-08-19T06:16:57;34.20;99.90
18175;DHT22;9212;50.894;16.714;2022-08-19T06:21:56;34.60;99.90
18175;DHT22;9212;50.894;16.714;2022-08-19T06:29:23;35.00;99.90
18175;DHT22;9212;50.894;16.714;2022-08-19T06:31:56;35.60;99.90
18175;DHT22;9212;50.894;16.714;2022-08-19T06:34:24;35.40;99.90
18175;DHT22;9212;50.894;16.714;2022-08-19T06:41:52;34.90;99.90
18175;DHT22;9212;50.894;16.714;2022-08-19T17:11:04;27.50;99.90
18175;DHT22;9212;50.894;16.714;2022-08-19T17:23:25;27.30;99.90
18175;DHT22;9212;50.894;16.714;2022-08-19T17:25:53;27.40;99.90
18175;DHT22;9212;50.894;16.714;2022-08-19T17:28:23;27.20;99.90
18175;DHT22;9212;50.894;16.714;2022-08-19T17:33:19;26.80;99.90
18175;DHT22;9212;50.894;16.714;2022-08-19T17:35:46;26.70;99.90
18175;DHT22;9212;50.894;16.714;2022-08-19T17:38:16;26.60;99.90
18175;DHT22;9212;50.894;16.714;2022-08-19T17:40:44;26.30;99.90
18175;DHT22;9212;50.894;16.714;2022-08-19T17:43:12;26.90;99.90
18175;DHT22;9212;50.894;16.714;2022-08-19T17:53:06;25.90;99.90
